sensor_id;sensor_type;location;lat;lon;timestamp;P1;durP1;ratioP1;P2;durP2;ratioP2
11313;SDS011;5712;48.858;9.206;2023-10-19T00:01:54;32.80;;;19.50;;
11313;SDS011;5712;48.858;9.206;2023-10-19T00:04:21;31.80;;;18.80;;
11313;SDS011;5712;48.858;9.206;2023-10-19T00:06:48;30.07;;;18.90;;
11313;SDS011;5712;48.858;9.206;2023-10-19T00:09:13;28.87;;;18.50;;
11313;SDS011;5712;48.858;9.206;2023-10-19T00:11:41;30.43;;;19.97;;
11313;SDS011;5712;48.858;9.206;2023-10-19T00:14:07;27.87;;;18.00;;
11313;SDS011;5712;48.858;9.206;2023-10-19T00:16:41;27.83;;;18.87;;
11313;SDS011;5712;48.858;9.206;2023-10-19T00:19:09;26.87;;;18.10;;
11313;SDS011;5712;48.858;9.206;2023-10-19T00:21:37;28.83;;;17.97;;
11313;SDS011;5712;48.858;9.206;2023-10-19T00:24:15;29.97;;;18.50;;
11313;SDS011;5712;48.858;9.206;2023-10-19T00:26:43;27.77;;;17.80;;
11313;SDS011;5712;48.858;9.206;2023-10-19T00:29:10;28.47;;;18.20;;
11313;SDS011;5712;48.858;9.206;2023-10-19T00:31:54;27.10;;;17.03;;
11313;SDS011;5712;48.858;9.206;2023-10-19T00:34:21;28.53;;;17.67;;
11313;SDS011;5712;48.858;9.206;2023-10-19T00:36:49;30.37;;;18.03;;
11313;SDS011;5712;48.858;9.206;2023-10-19T00:39:17;26.20;;;17.13;;
11313;SDS011;5712;48.858;9.206;2023-10-19T00:41:46;28.80;;;17.53;;
11313;SDS011;5712;48.858;9.206;2023-10-19T00:44:13;25.97;;;17.30;;
11313;SDS011;5712;48.858;9.206;2023-10-19T00:46:42;24.07;;;16.27;;
11313;SDS011;5712;48.858;9.206;2023-10-19T00:49:14;29.53;;;18.13;;
11313;SDS011;5712;48.858;9.206;2023-10-19T00:51:42;29.30;;;17.90;;
11313;SDS011;5712;48.858;9.206;2023-10-19T00:54:29;25.87;;;16.20;;
11313;SDS011;5712;48.858;9.206;2023-10-19T00:56:58;28.80;;;18.23;;
11313;SDS011;5712;48.858;9.206;2023-10-19T00:59:29;24.47;;;17.07;;
11313;SDS011;5712;48.858;9.206;2023-10-19T01:02:00;28.47;;;18.17;;
11313;SDS011;5712;48.858;9.206;2023-10-19T01:04:41;27.37;;;17.13;;
11313;SDS011;5712;48.858;9.206;2023-10-19T01:07:09;24.40;;;16.23;;
11313;SDS011;5712;48.858;9.206;2023-10-19T01:09:42;26.10;;;17.37;;
11313;SDS011;5712;48.858;9.206;2023-10-19T01:12:09;25.87;;;16.27;;
11313;SDS011;5712;48.858;9.206;2023-10-19T01:15:09;25.10;;;15.80;;
11313;SDS011;5712;48.858;9.206;2023-10-19T01:17:39;26.60;;;17.73;;
11313;SDS011;5712;48.858;9.206;2023-10-19T01:20:09;25.00;;;15.90;;
11313;SDS011;5712;48.858;9.206;2023-10-19T01:22:52;26.63;;;15.47;;
11313;SDS011;5712;48.858;9.206;2023-10-19T01:25:46;24.77;;;16.97;;
11313;SDS011;5712;48.858;9.206;2023-10-19T01:28:24;23.20;;;16.00;;
11313;SDS011;5712;48.858;9.206;2023-10-19T01:30:53;23.97;;;16.70;;
11313;SDS011;5712;48.858;9.206;2023-10-19T01:33:21;25.60;;;17.00;;
11313;SDS011;5712;48.858;9.206;2023-10-19T01:35:48;23.77;;;15.87;;
11313;SDS011;5712;48.858;9.206;2023-10-19T01:38:33;23.40;;;15.83;;
11313;SDS011;5712;48.858;9.206;2023-10-19T01:41:01;25.93;;;16.50;;
11313;SDS011;5712;48.858;9.206;2023-10-19T01:43:32;22.67;;;16.00;;
11313;SDS011;5712;48.858;9.206;2023-10-19T01:45:58;24.23;;;15.43;;
11313;SDS011;5712;48.858;9.206;2023-10-19T01:48:29;24.47;;;15.80;;
11313;SDS011;5712;48.858;9.206;2023-10-19T01:50:58;25.03;;;16.03;;
11313;SDS011;5712;48.858;9.206;2023-10-19T01:53:24;24.33;;;15.83;;
11313;SDS011;5712;48.858;9.206;2023-10-19T01:55:53;23.30;;;16.40;;
11313;SDS011;5712;48.858;9.206;2023-10-19T01:58:23;23.83;;;15.03;;
11313;SDS011;5712;48.858;9.206;2023-10-19T02:00:51;22.80;;;16.03;;
11313;SDS011;5712;48.858;9.206;2023-10-19T02:03:19;20.13;;;14.70;;
11313;SDS011;5712;48.858;9.206;2023-10-19T02:05:48;19.80;;;13.93;;
11313;SDS011;5712;48.858;9.206;2023-10-19T02:08:15;22.40;;;14.83;;
11313;SDS011;5712;48.858;9.206;2023-10-19T02:10:45;19.63;;;14.30;;
11313;SDS011;5712;48.858;9.206;2023-10-19T02:13:13;24.77;;;14.20;;
11313;SDS011;5712;48.858;9.206;2023-10-19T02:15:41;21.93;;;14.43;;
11313;SDS011;5712;48.858;9.206;2023-10-19T02:18:07;21.60;;;14.03;;
11313;SDS011;5712;48.858;9.206;2023-10-19T02:20:35;21.87;;;14.27;;
11313;SDS011;5712;48.858;9.206;2023-10-19T02:23:04;23.57;;;15.10;;
11313;SDS011;5712;48.858;9.206;2023-10-19T02:25:31;22.33;;;14.70;;
11313;SDS011;5712;48.858;9.206;2023-10-19T02:28:01;21.43;;;14.87;;
11313;SDS011;5712;48.858;9.206;2023-10-19T02:30:30;22.70;;;14.60;;
11313;SDS011;5712;48.858;9.206;2023-10-19T02:32:56;21.60;;;14.73;;
11313;SDS011;5712;48.858;9.206;2023-10-19T02:35:22;20.63;;;15.53;;
11313;SDS011;5712;48.858;9.206;2023-10-19T02:37:48;21.20;;;14.47;;
11313;SDS011;5712;48.858;9.206;2023-10-19T02:40:14;23.23;;;15.13;;
11313;SDS011;5712;48.858;9.206;2023-10-19T02:42:45;20.30;;;14.10;;
11313;SDS011;5712;48.858;9.206;2023-10-19T02:45:12;20.40;;;14.87;;
11313;SDS011;5712;48.858;9.206;2023-10-19T02:47:43;25.20;;;15.63;;
11313;SDS011;5712;48.858;9.206;2023-10-19T02:50:09;23.40;;;15.17;;
11313;SDS011;5712;48.858;9.206;2023-10-19T02:52:38;24.40;;;16.50;;
11313;SDS011;5712;48.858;9.206;2023-10-19T02:55:06;19.87;;;14.37;;
11313;SDS011;5712;48.858;9.206;2023-10-19T02:57:34;23.77;;;16.03;;
11313;SDS011;5712;48.858;9.206;2023-10-19T03:00:00;24.43;;;15.83;;
11313;SDS011;5712;48.858;9.206;2023-10-19T03:02:33;20.90;;;15.23;;
11313;SDS011;5712;48.858;9.206;2023-10-19T03:05:03;20.83;;;14.20;;
11313;SDS011;5712;48.858;9.206;2023-10-19T03:07:35;21.23;;;14.67;;
11313;SDS011;5712;48.858;9.206;2023-10-19T03:10:01;20.83;;;14.10;;
11313;SDS011;5712;48.858;9.206;2023-10-19T03:12:27;25.30;;;15.63;;
11313;SDS011;5712;48.858;9.206;2023-10-19T03:14:55;23.00;;;14.60;;
11313;SDS011;5712;48.858;9.206;2023-10-19T03:17:21;20.90;;;14.13;;
11313;SDS011;5712;48.858;9.206;2023-10-19T03:19:49;21.67;;;14.87;;
11313;SDS011;5712;48.858;9.206;2023-10-19T03:22:16;23.00;;;14.90;;
11313;SDS011;5712;48.858;9.206;2023-10-19T03:24:44;23.13;;;15.23;;
11313;SDS011;5712;48.858;9.206;2023-10-19T03:27:11;22.63;;;15.17;;
11313;SDS011;5712;48.858;9.206;2023-10-19T03:29:41;24.17;;;14.27;;
11313;SDS011;5712;48.858;9.206;2023-10-19T03:32:13;22.10;;;13.30;;
11313;SDS011;5712;48.858;9.206;2023-10-19T03:34:41;20.63;;;13.30;;
11313;SDS011;5712;48.858;9.206;2023-10-19T03:37:12;21.23;;;13.93;;
11313;SDS011;5712;48.858;9.206;2023-10-19T03:39:40;22.60;;;13.53;;
11313;SDS011;5712;48.858;9.206;2023-10-19T03:42:10;19.47;;;12.13;;
11313;SDS011;5712;48.858;9.206;2023-10-19T03:44:39;19.07;;;12.80;;
11313;SDS011;5712;48.858;9.206;2023-10-19T03:47:10;20.60;;;12.60;;
11313;SDS011;5712;48.858;9.206;2023-10-19T03:49:39;21.87;;;13.20;;
11313;SDS011;5712;48.858;9.206;2023-10-19T03:52:06;20.77;;;12.80;;
11313;SDS011;5712;48.858;9.206;2023-10-19T03:54:47;20.37;;;13.43;;
11313;SDS011;5712;48.858;9.206;2023-10-19T03:57:15;18.70;;;11.87;;
11313;SDS011;5712;48.858;9.206;2023-10-19T03:59:47;17.20;;;12.17;;
11313;SDS011;5712;48.858;9.206;2023-10-19T04:02:18;19.47;;;12.73;;
11313;SDS011;5712;48.858;9.206;2023-10-19T04:04:46;21.50;;;12.90;;
11313;SDS011;5712;48.858;9.206;2023-10-19T04:07:13;20.67;;;12.77;;
11313;SDS011;5712;48.858;9.206;2023-10-19T04:09:47;22.13;;;13.27;;
11313;SDS011;5712;48.858;9.206;2023-10-19T04:12:25;19.30;;;12.73;;
11313;SDS011;5712;48.858;9.206;2023-10-19T04:14:53;18.30;;;11.87;;
11313;SDS011;5712;48.858;9.206;2023-10-19T04:17:20;21.40;;;12.47;;
11313;SDS011;5712;48.858;9.206;2023-10-19T04:19:48;18.70;;;12.93;;
11313;SDS011;5712;48.858;9.206;2023-10-19T04:22:15;22.27;;;12.93;;
11313;SDS011;5712;48.858;9.206;2023-10-19T04:24:49;20.93;;;12.97;;
11313;SDS011;5712;48.858;9.206;2023-10-19T04:27:17;22.53;;;13.47;;
11313;SDS011;5712;48.858;9.206;2023-10-19T04:29:46;21.53;;;13.00;;
11313;SDS011;5712;48.858;9.206;2023-10-19T04:32:14;19.90;;;12.67;;
11313;SDS011;5712;48.858;9.206;2023-10-19T04:34:50;24.57;;;13.43;;
11313;SDS011;5712;48.858;9.206;2023-10-19T04:37:16;23.03;;;13.27;;
11313;SDS011;5712;48.858;9.206;2023-10-19T04:39:43;20.40;;;12.67;;
11313;SDS011;5712;48.858;9.206;2023-10-19T04:42:11;24.33;;;14.13;;
11313;SDS011;5712;48.858;9.206;2023-10-19T04:44:39;21.43;;;13.40;;
11313;SDS011;5712;48.858;9.206;2023-10-19T04:47:06;21.17;;;12.83;;
11313;SDS011;5712;48.858;9.206;2023-10-19T04:49:32;21.60;;;12.70;;
11313;SDS011;5712;48.858;9.206;2023-10-19T04:51:59;23.53;;;13.33;;
11313;SDS011;5712;48.858;9.206;2023-10-19T04:54:25;21.33;;;12.83;;
11313;SDS011;5712;48.858;9.206;2023-10-19T04:56:52;20.37;;;13.03;;
11313;SDS011;5712;48.858;9.206;2023-10-19T04:59:22;20.60;;;12.30;;
11313;SDS011;5712;48.858;9.206;2023-10-19T05:01:48;18.67;;;11.40;;
11313;SDS011;5712;48.858;9.206;2023-10-19T05:04:15;19.90;;;12.10;;
11313;SDS011;5712;48.858;9.206;2023-10-19T05:06:43;18.50;;;12.50;;
11313;SDS011;5712;48.858;9.206;2023-10-19T05:09:10;24.33;;;14.40;;
11313;SDS011;5712;48.858;9.206;2023-10-19T05:11:37;19.87;;;13.07;;
11313;SDS011;5712;48.858;9.206;2023-10-19T05:14:04;22.73;;;13.43;;
11313;SDS011;5712;48.858;9.206;2023-10-19T05:16:32;20.77;;;12.97;;
11313;SDS011;5712;48.858;9.206;2023-10-19T05:18:59;22.73;;;14.03;;
11313;SDS011;5712;48.858;9.206;2023-10-19T05:21:25;22.50;;;13.40;;
11313;SDS011;5712;48.858;9.206;2023-10-19T05:23:52;19.57;;;12.17;;
11313;SDS011;5712;48.858;9.206;2023-10-19T05:26:18;22.23;;;13.20;;
11313;SDS011;5712;48.858;9.206;2023-10-19T05:28:45;19.67;;;12.50;;
11313;SDS011;5712;48.858;9.206;2023-10-19T05:31:12;18.80;;;12.17;;
11313;SDS011;5712;48.858;9.206;2023-10-19T05:33:41;18.43;;;11.83;;
11313;SDS011;5712;48.858;9.206;2023-10-19T05:36:08;21.40;;;11.93;;
11313;SDS011;5712;48.858;9.206;2023-10-19T05:38:34;18.77;;;11.33;;
11313;SDS011;5712;48.858;9.206;2023-10-19T05:41:01;23.97;;;12.23;;
11313;SDS011;5712;48.858;9.206;2023-10-19T05:43:29;20.57;;;12.27;;
11313;SDS011;5712;48.858;9.206;2023-10-19T05:45:56;20.43;;;12.23;;
11313;SDS011;5712;48.858;9.206;2023-10-19T05:48:23;19.10;;;12.20;;
11313;SDS011;5712;48.858;9.206;2023-10-19T05:50:50;16.97;;;11.43;;
11313;SDS011;5712;48.858;9.206;2023-10-19T05:53:17;21.33;;;11.97;;
11313;SDS011;5712;48.858;9.206;2023-10-19T05:55:44;20.87;;;12.70;;
11313;SDS011;5712;48.858;9.206;2023-10-19T05:58:10;21.83;;;12.77;;
11313;SDS011;5712;48.858;9.206;2023-10-19T06:00:37;19.90;;;11.70;;
11313;SDS011;5712;48.858;9.206;2023-10-19T06:03:04;21.27;;;12.17;;
11313;SDS011;5712;48.858;9.206;2023-10-19T06:05:30;19.80;;;12.07;;
11313;SDS011;5712;48.858;9.206;2023-10-19T06:07:58;22.77;;;13.30;;
11313;SDS011;5712;48.858;9.206;2023-10-19T06:10:27;21.50;;;12.80;;
11313;SDS011;5712;48.858;9.206;2023-10-19T06:12:54;24.47;;;12.73;;
11313;SDS011;5712;48.858;9.206;2023-10-19T06:15:22;21.13;;;12.07;;
11313;SDS011;5712;48.858;9.206;2023-10-19T06:17:49;21.93;;;13.20;;
11313;SDS011;5712;48.858;9.206;2023-10-19T06:20:16;22.53;;;12.90;;
11313;SDS011;5712;48.858;9.206;2023-10-19T06:22:49;27.43;;;14.07;;
11313;SDS011;5712;48.858;9.206;2023-10-19T06:25:17;28.13;;;15.10;;
11313;SDS011;5712;48.858;9.206;2023-10-19T06:27:45;26.93;;;15.00;;
11313;SDS011;5712;48.858;9.206;2023-10-19T06:30:12;26.13;;;15.03;;
11313;SDS011;5712;48.858;9.206;2023-10-19T06:32:43;27.53;;;15.80;;
11313;SDS011;5712;48.858;9.206;2023-10-19T06:35:14;24.63;;;15.13;;
11313;SDS011;5712;48.858;9.206;2023-10-19T06:37:41;27.10;;;14.67;;
11313;SDS011;5712;48.858;9.206;2023-10-19T06:40:08;26.60;;;15.67;;
11313;SDS011;5712;48.858;9.206;2023-10-19T06:42:38;26.30;;;14.67;;
11313;SDS011;5712;48.858;9.206;2023-10-19T06:45:05;24.87;;;14.77;;
11313;SDS011;5712;48.858;9.206;2023-10-19T06:47:33;24.57;;;15.03;;
11313;SDS011;5712;48.858;9.206;2023-10-19T06:50:02;25.30;;;13.87;;
11313;SDS011;5712;48.858;9.206;2023-10-19T06:52:32;22.27;;;13.53;;
11313;SDS011;5712;48.858;9.206;2023-10-19T06:54:58;23.23;;;13.83;;
11313;SDS011;5712;48.858;9.206;2023-10-19T06:57:25;23.00;;;13.97;;
11313;SDS011;5712;48.858;9.206;2023-10-19T06:59:53;28.23;;;14.37;;
11313;SDS011;5712;48.858;9.206;2023-10-19T07:02:20;25.57;;;13.87;;
11313;SDS011;5712;48.858;9.206;2023-10-19T07:04:46;28.73;;;15.45;;
11313;SDS011;5712;48.858;9.206;2023-10-19T07:07:13;32.77;;;20.23;;
11313;SDS011;5712;48.858;9.206;2023-10-19T07:09:39;34.53;;;17.30;;
11313;SDS011;5712;48.858;9.206;2023-10-19T07:12:06;31.80;;;17.83;;
11313;SDS011;5712;48.858;9.206;2023-10-19T07:14:34;29.67;;;16.20;;
11313;SDS011;5712;48.858;9.206;2023-10-19T07:17:01;28.73;;;16.03;;
11313;SDS011;5712;48.858;9.206;2023-10-19T07:19:28;30.37;;;15.57;;
11313;SDS011;5712;48.858;9.206;2023-10-19T07:21:55;27.53;;;15.07;;
11313;SDS011;5712;48.858;9.206;2023-10-19T07:24:23;28.20;;;16.47;;
11313;SDS011;5712;48.858;9.206;2023-10-19T07:26:50;24.17;;;14.77;;
11313;SDS011;5712;48.858;9.206;2023-10-19T07:29:28;27.83;;;17.07;;
11313;SDS011;5712;48.858;9.206;2023-10-19T07:31:56;29.57;;;17.23;;
11313;SDS011;5712;48.858;9.206;2023-10-19T07:34:24;30.87;;;18.40;;
11313;SDS011;5712;48.858;9.206;2023-10-19T07:36:53;31.97;;;18.67;;
11313;SDS011;5712;48.858;9.206;2023-10-19T07:39:20;32.23;;;18.63;;
11313;SDS011;5712;48.858;9.206;2023-10-19T07:41:48;33.40;;;18.07;;
11313;SDS011;5712;48.858;9.206;2023-10-19T07:44:14;33.07;;;19.43;;
11313;SDS011;5712;48.858;9.206;2023-10-19T07:46:41;32.67;;;18.80;;
11313;SDS011;5712;48.858;9.206;2023-10-19T07:49:07;30.60;;;18.23;;
11313;SDS011;5712;48.858;9.206;2023-10-19T07:51:35;34.17;;;18.33;;
11313;SDS011;5712;48.858;9.206;2023-10-19T07:54:01;34.63;;;19.10;;
11313;SDS011;5712;48.858;9.206;2023-10-19T07:56:28;31.03;;;19.10;;
11313;SDS011;5712;48.858;9.206;2023-10-19T07:58:55;30.97;;;18.70;;
11313;SDS011;5712;48.858;9.206;2023-10-19T08:01:21;35.60;;;19.67;;
11313;SDS011;5712;48.858;9.206;2023-10-19T08:03:48;37.77;;;20.70;;
11313;SDS011;5712;48.858;9.206;2023-10-19T08:06:14;34.50;;;19.63;;
11313;SDS011;5712;48.858;9.206;2023-10-19T08:08:42;35.10;;;20.03;;
11313;SDS011;5712;48.858;9.206;2023-10-19T08:11:09;34.93;;;20.00;;
11313;SDS011;5712;48.858;9.206;2023-10-19T08:13:35;28.67;;;18.13;;
11313;SDS011;5712;48.858;9.206;2023-10-19T08:16:02;26.83;;;17.50;;
11313;SDS011;5712;48.858;9.206;2023-10-19T08:18:30;26.87;;;16.27;;
11313;SDS011;5712;48.858;9.206;2023-10-19T08:20:57;24.23;;;16.37;;
11313;SDS011;5712;48.858;9.206;2023-10-19T08:23:23;30.10;;;18.27;;
11313;SDS011;5712;48.858;9.206;2023-10-19T08:25:53;25.97;;;17.23;;
11313;SDS011;5712;48.858;9.206;2023-10-19T08:28:20;24.53;;;17.07;;
11313;SDS011;5712;48.858;9.206;2023-10-19T08:30:48;26.47;;;16.73;;
11313;SDS011;5712;48.858;9.206;2023-10-19T08:33:22;24.03;;;16.97;;
11313;SDS011;5712;48.858;9.206;2023-10-19T08:35:51;24.07;;;16.30;;
11313;SDS011;5712;48.858;9.206;2023-10-19T08:38:18;30.17;;;17.67;;
11313;SDS011;5712;48.858;9.206;2023-10-19T08:40:45;28.63;;;18.70;;
11313;SDS011;5712;48.858;9.206;2023-10-19T08:43:14;27.03;;;18.50;;
11313;SDS011;5712;48.858;9.206;2023-10-19T08:45:43;26.93;;;18.13;;
11313;SDS011;5712;48.858;9.206;2023-10-19T08:48:10;27.20;;;17.00;;
11313;SDS011;5712;48.858;9.206;2023-10-19T08:50:37;23.57;;;16.30;;
11313;SDS011;5712;48.858;9.206;2023-10-19T08:53:04;23.67;;;15.90;;
11313;SDS011;5712;48.858;9.206;2023-10-19T08:55:33;23.13;;;15.60;;
11313;SDS011;5712;48.858;9.206;2023-10-19T08:58:00;19.57;;;14.53;;
11313;SDS011;5712;48.858;9.206;2023-10-19T09:00:38;25.63;;;14.93;;
11313;SDS011;5712;48.858;9.206;2023-10-19T09:03:12;20.67;;;14.27;;
11313;SDS011;5712;48.858;9.206;2023-10-19T09:05:39;18.63;;;12.93;;
11313;SDS011;5712;48.858;9.206;2023-10-19T09:08:06;19.30;;;13.67;;
11313;SDS011;5712;48.858;9.206;2023-10-19T09:10:34;19.87;;;13.87;;
11313;SDS011;5712;48.858;9.206;2023-10-19T09:13:01;18.30;;;15.03;;
11313;SDS011;5712;48.858;9.206;2023-10-19T09:15:31;19.43;;;14.17;;
11313;SDS011;5712;48.858;9.206;2023-10-19T09:17:58;21.50;;;14.33;;
11313;SDS011;5712;48.858;9.206;2023-10-19T09:20:25;18.97;;;13.10;;
11313;SDS011;5712;48.858;9.206;2023-10-19T09:22:53;17.23;;;13.07;;
11313;SDS011;5712;48.858;9.206;2023-10-19T09:25:20;16.10;;;12.60;;
11313;SDS011;5712;48.858;9.206;2023-10-19T09:27:47;14.97;;;11.70;;
11313;SDS011;5712;48.858;9.206;2023-10-19T09:30:14;16.07;;;12.20;;
11313;SDS011;5712;48.858;9.206;2023-10-19T09:32:46;15.27;;;12.03;;
11313;SDS011;5712;48.858;9.206;2023-10-19T09:35:13;18.60;;;11.60;;
11313;SDS011;5712;48.858;9.206;2023-10-19T09:37:41;15.80;;;12.27;;
11313;SDS011;5712;48.858;9.206;2023-10-19T09:40:08;15.93;;;11.53;;
11313;SDS011;5712;48.858;9.206;2023-10-19T09:42:37;14.37;;;11.27;;
11313;SDS011;5712;48.858;9.206;2023-10-19T09:45:11;13.77;;;10.83;;
11313;SDS011;5712;48.858;9.206;2023-10-19T09:47:38;15.67;;;11.70;;
11313;SDS011;5712;48.858;9.206;2023-10-19T09:50:13;13.37;;;10.33;;
11313;SDS011;5712;48.858;9.206;2023-10-19T09:52:40;13.77;;;10.83;;
11313;SDS011;5712;48.858;9.206;2023-10-19T09:55:08;11.40;;;9.90;;
11313;SDS011;5712;48.858;9.206;2023-10-19T09:57:39;11.20;;;9.53;;
11313;SDS011;5712;48.858;9.206;2023-10-19T10:00:13;10.87;;;9.37;;
11313;SDS011;5712;48.858;9.206;2023-10-19T10:02:42;11.43;;;9.03;;
11313;SDS011;5712;48.858;9.206;2023-10-19T10:08:31;10.80;;;8.00;;
11313;SDS011;5712;48.858;9.206;2023-10-19T10:10:59;11.33;;;7.93;;
11313;SDS011;5712;48.858;9.206;2023-10-19T10:13:41;9.20;;;7.67;;
11313;SDS011;5712;48.858;9.206;2023-10-19T10:16:08;9.43;;;7.60;;
11313;SDS011;5712;48.858;9.206;2023-10-19T10:18:35;8.03;;;7.23;;
11313;SDS011;5712;48.858;9.206;2023-10-19T10:21:07;8.27;;;6.43;;
11313;SDS011;5712;48.858;9.206;2023-10-19T10:23:39;5.97;;;5.03;;
11313;SDS011;5712;48.858;9.206;2023-10-19T10:26:07;5.70;;;4.83;;
11313;SDS011;5712;48.858;9.206;2023-10-19T10:28:35;5.03;;;4.53;;
11313;SDS011;5712;48.858;9.206;2023-10-19T10:31:11;6.30;;;5.50;;
11313;SDS011;5712;48.858;9.206;2023-10-19T10:33:42;5.57;;;4.70;;
11313;SDS011;5712;48.858;9.206;2023-10-19T10:36:12;5.07;;;4.50;;
11313;SDS011;5712;48.858;9.206;2023-10-19T10:38:42;4.90;;;4.37;;
11313;SDS011;5712;48.858;9.206;2023-10-19T10:41:08;4.50;;;4.10;;
11313;SDS011;5712;48.858;9.206;2023-10-19T10:43:47;4.70;;;4.20;;
11313;SDS011;5712;48.858;9.206;2023-10-19T10:46:16;4.93;;;3.97;;
11313;SDS011;5712;48.858;9.206;2023-10-19T10:48:43;4.23;;;3.83;;
11313;SDS011;5712;48.858;9.206;2023-10-19T10:51:17;4.20;;;3.80;;
11313;SDS011;5712;48.858;9.206;2023-10-19T10:53:47;4.93;;;3.80;;
11313;SDS011;5712;48.858;9.206;2023-10-19T10:56:14;4.87;;;3.90;;
11313;SDS011;5712;48.858;9.206;2023-10-19T10:58:41;5.50;;;4.43;;
11313;SDS011;5712;48.858;9.206;2023-10-19T11:01:07;4.57;;;4.13;;
11313;SDS011;5712;48.858;9.206;2023-10-19T11:03:35;4.33;;;3.80;;
11313;SDS011;5712;48.858;9.206;2023-10-19T11:06:05;5.20;;;3.80;;
11313;SDS011;5712;48.858;9.206;2023-10-19T11:08:34;4.47;;;4.00;;
11313;SDS011;5712;48.858;9.206;2023-10-19T11:11:02;5.87;;;4.70;;
11313;SDS011;5712;48.858;9.206;2023-10-19T11:13:30;5.87;;;4.93;;
11313;SDS011;5712;48.858;9.206;2023-10-19T11:16:00;6.10;;;4.83;;
11313;SDS011;5712;48.858;9.206;2023-10-19T11:18:30;6.53;;;4.70;;
11313;SDS011;5712;48.858;9.206;2023-10-19T11:21:00;6.30;;;4.83;;
11313;SDS011;5712;48.858;9.206;2023-10-19T11:23:38;6.33;;;5.47;;
11313;SDS011;5712;48.858;9.206;2023-10-19T11:26:06;6.63;;;5.27;;
11313;SDS011;5712;48.858;9.206;2023-10-19T11:28:33;8.43;;;5.90;;
11313;SDS011;5712;48.858;9.206;2023-10-19T11:31:10;7.80;;;6.50;;
11313;SDS011;5712;48.858;9.206;2023-10-19T11:33:38;7.97;;;6.17;;
11313;SDS011;5712;48.858;9.206;2023-10-19T11:36:07;8.43;;;6.43;;
11313;SDS011;5712;48.858;9.206;2023-10-19T11:38:38;8.80;;;6.47;;
11313;SDS011;5712;48.858;9.206;2023-10-19T11:41:06;9.77;;;6.53;;
11313;SDS011;5712;48.858;9.206;2023-10-19T11:43:32;8.67;;;6.53;;
11313;SDS011;5712;48.858;9.206;2023-10-19T11:45:59;9.17;;;6.73;;
11313;SDS011;5712;48.858;9.206;2023-10-19T11:48:27;9.47;;;6.93;;
11313;SDS011;5712;48.858;9.206;2023-10-19T11:50:55;10.23;;;7.87;;
11313;SDS011;5712;48.858;9.206;2023-10-19T11:53:22;9.87;;;7.83;;
11313;SDS011;5712;48.858;9.206;2023-10-19T11:56:02;9.70;;;7.90;;
11313;SDS011;5712;48.858;9.206;2023-10-19T11:58:30;9.23;;;8.27;;
11313;SDS011;5712;48.858;9.206;2023-10-19T12:00:59;13.00;;;8.03;;
11313;SDS011;5712;48.858;9.206;2023-10-19T12:03:26;11.63;;;8.43;;
11313;SDS011;5712;48.858;9.206;2023-10-19T12:05:53;11.20;;;7.80;;
11313;SDS011;5712;48.858;9.206;2023-10-19T12:08:20;12.27;;;7.00;;
11313;SDS011;5712;48.858;9.206;2023-10-19T12:10:47;9.23;;;7.57;;
11313;SDS011;5712;48.858;9.206;2023-10-19T12:13:15;12.30;;;7.87;;
11313;SDS011;5712;48.858;9.206;2023-10-19T12:15:41;13.83;;;8.37;;
11313;SDS011;5712;48.858;9.206;2023-10-19T12:18:16;13.27;;;8.77;;
11313;SDS011;5712;48.858;9.206;2023-10-19T12:20:43;12.03;;;8.93;;
11313;SDS011;5712;48.858;9.206;2023-10-19T12:23:11;11.77;;;8.37;;
11313;SDS011;5712;48.858;9.206;2023-10-19T12:25:37;12.40;;;8.63;;
11313;SDS011;5712;48.858;9.206;2023-10-19T12:28:04;9.50;;;8.03;;
11313;SDS011;5712;48.858;9.206;2023-10-19T12:30:32;10.90;;;8.53;;
11313;SDS011;5712;48.858;9.206;2023-10-19T12:33:02;8.97;;;7.50;;
11313;SDS011;5712;48.858;9.206;2023-10-19T12:35:32;11.77;;;9.20;;
11313;SDS011;5712;48.858;9.206;2023-10-19T12:38:09;10.60;;;8.53;;
11313;SDS011;5712;48.858;9.206;2023-10-19T12:40:41;10.83;;;8.27;;
11313;SDS011;5712;48.858;9.206;2023-10-19T12:43:09;10.33;;;7.50;;
11313;SDS011;5712;48.858;9.206;2023-10-19T12:45:39;10.43;;;7.40;;
11313;SDS011;5712;48.858;9.206;2023-10-19T12:48:06;8.67;;;7.00;;
11313;SDS011;5712;48.858;9.206;2023-10-19T12:50:35;9.57;;;6.73;;
11313;SDS011;5712;48.858;9.206;2023-10-19T12:53:02;8.37;;;6.33;;
11313;SDS011;5712;48.858;9.206;2023-10-19T12:55:29;11.37;;;6.43;;
11313;SDS011;5712;48.858;9.206;2023-10-19T12:57:56;9.63;;;6.50;;
11313;SDS011;5712;48.858;9.206;2023-10-19T13:00:25;7.13;;;6.30;;
11313;SDS011;5712;48.858;9.206;2023-10-19T13:02:55;8.17;;;6.63;;
11313;SDS011;5712;48.858;9.206;2023-10-19T13:05:26;8.80;;;6.80;;
11313;SDS011;5712;48.858;9.206;2023-10-19T13:07:53;10.70;;;7.67;;
11313;SDS011;5712;48.858;9.206;2023-10-19T13:10:23;8.67;;;7.77;;
11313;SDS011;5712;48.858;9.206;2023-10-19T13:12:53;9.47;;;7.70;;
11313;SDS011;5712;48.858;9.206;2023-10-19T13:15:20;9.03;;;6.67;;
11313;SDS011;5712;48.858;9.206;2023-10-19T13:17:47;7.37;;;6.07;;
11313;SDS011;5712;48.858;9.206;2023-10-19T13:20:15;8.20;;;6.03;;
11313;SDS011;5712;48.858;9.206;2023-10-19T13:22:43;7.10;;;5.97;;
11313;SDS011;5712;48.858;9.206;2023-10-19T13:25:10;8.40;;;6.50;;
11313;SDS011;5712;48.858;9.206;2023-10-19T13:27:41;7.70;;;6.10;;
11313;SDS011;5712;48.858;9.206;2023-10-19T13:30:09;7.40;;;5.43;;
11313;SDS011;5712;48.858;9.206;2023-10-19T13:32:39;7.13;;;5.57;;
11313;SDS011;5712;48.858;9.206;2023-10-19T13:35:06;5.83;;;5.20;;
11313;SDS011;5712;48.858;9.206;2023-10-19T13:37:35;6.63;;;5.07;;
11313;SDS011;5712;48.858;9.206;2023-10-19T13:40:02;6.40;;;5.10;;
11313;SDS011;5712;48.858;9.206;2023-10-19T13:42:32;5.23;;;4.60;;
11313;SDS011;5712;48.858;9.206;2023-10-19T13:44:59;7.33;;;5.17;;
11313;SDS011;5712;48.858;9.206;2023-10-19T13:47:26;7.67;;;5.90;;
11313;SDS011;5712;48.858;9.206;2023-10-19T13:49:52;8.47;;;6.20;;
11313;SDS011;5712;48.858;9.206;2023-10-19T13:52:19;10.93;;;7.63;;
11313;SDS011;5712;48.858;9.206;2023-10-19T13:54:47;11.93;;;9.40;;
11313;SDS011;5712;48.858;9.206;2023-10-19T13:57:13;13.83;;;9.97;;
11313;SDS011;5712;48.858;9.206;2023-10-19T13:59:40;9.83;;;8.83;;
11313;SDS011;5712;48.858;9.206;2023-10-19T14:02:06;11.70;;;8.77;;
11313;SDS011;5712;48.858;9.206;2023-10-19T14:04:33;10.43;;;8.43;;
11313;SDS011;5712;48.858;9.206;2023-10-19T14:06:59;10.97;;;8.73;;
11313;SDS011;5712;48.858;9.206;2023-10-19T14:09:26;11.53;;;9.33;;
11313;SDS011;5712;48.858;9.206;2023-10-19T14:11:54;13.40;;;9.60;;
11313;SDS011;5712;48.858;9.206;2023-10-19T14:14:20;11.70;;;9.53;;
11313;SDS011;5712;48.858;9.206;2023-10-19T14:16:47;12.73;;;9.77;;
11313;SDS011;5712;48.858;9.206;2023-10-19T14:19:15;13.50;;;9.37;;
11313;SDS011;5712;48.858;9.206;2023-10-19T14:21:42;11.87;;;9.03;;
11313;SDS011;5712;48.858;9.206;2023-10-19T14:24:11;14.80;;;9.67;;
11313;SDS011;5712;48.858;9.206;2023-10-19T14:26:37;11.70;;;9.13;;
11313;SDS011;5712;48.858;9.206;2023-10-19T14:29:06;12.27;;;9.20;;
11313;SDS011;5712;48.858;9.206;2023-10-19T14:31:33;13.00;;;9.97;;
11313;SDS011;5712;48.858;9.206;2023-10-19T14:34:00;11.50;;;9.23;;
11313;SDS011;5712;48.858;9.206;2023-10-19T14:36:26;11.57;;;8.90;;
11313;SDS011;5712;48.858;9.206;2023-10-19T14:38:54;13.13;;;10.13;;
11313;SDS011;5712;48.858;9.206;2023-10-19T14:41:21;14.80;;;10.27;;
11313;SDS011;5712;48.858;9.206;2023-10-19T14:43:47;14.10;;;10.67;;
11313;SDS011;5712;48.858;9.206;2023-10-19T14:46:15;14.03;;;10.13;;
11313;SDS011;5712;48.858;9.206;2023-10-19T14:48:42;12.70;;;9.70;;
11313;SDS011;5712;48.858;9.206;2023-10-19T14:51:10;14.90;;;10.23;;
11313;SDS011;5712;48.858;9.206;2023-10-19T14:53:36;14.80;;;10.87;;